createdAt,value
2018-11-05T00:01:58.327Z,100618.59
2018-11-05T00:04:27.252Z,100615.23
2018-11-05T00:06:54.789Z,100618.22
2018-11-05T00:09:22.311Z,100621.63
2018-11-05T00:11:49.838Z,100623.03
2018-11-05T00:14:17.353Z,100629.95
2018-11-05T00:16:45.856Z,100636.66
2018-11-05T00:23:48.691Z,100607.80
2018-11-05T00:26:17.544Z,100601.78
2018-11-05T00:28:47.204Z,100596.39
2018-11-05T00:31:14.713Z,100591.75
2018-11-05T00:33:42.454Z,100584.61
2018-11-05T00:36:09.880Z,100584.77
2018-11-05T00:38:37.322Z,100590.01
2018-11-05T00:41:06.104Z,100589.63
2018-11-05T00:43:33.554Z,100589.33
2018-11-05T00:46:01.077Z,100580.16
2018-11-05T00:48:30.178Z,100580.30
2018-11-05T00:50:57.688Z,100570.97
2018-11-05T00:53:26.159Z,100573.89
2018-11-05T00:55:53.953Z,100572.56
2018-11-05T00:58:21.383Z,100569.03
2018-11-05T01:00:49.080Z,100576.61
2018-11-05T01:03:16.682Z,100570.02
2018-11-05T01:05:45.570Z,100569.28
2018-11-05T01:08:13.042Z,100573.08
2018-11-05T01:10:40.735Z,100568.88
2018-11-05T01:13:08.247Z,100566.42
2018-11-05T01:15:35.682Z,100560.37
2018-11-05T01:18:04.139Z,100561.70
2018-11-05T01:20:31.744Z,100558.02
2018-11-05T01:22:59.418Z,100561.54
2018-11-05T01:25:27.022Z,100562.16
2018-11-05T01:27:54.628Z,100563.02
2018-11-05T01:30:23.469Z,100555.98
2018-11-05T01:32:51.562Z,100559.05
2018-11-05T01:35:18.973Z,100555.09
2018-11-05T01:37:46.533Z,100556.47
2018-11-05T01:40:14.955Z,100548.31
2018-11-05T01:42:43.740Z,100556.02
2018-11-05T01:45:12.325Z,100551.50
2018-11-05T01:47:40.462Z,100545.94
2018-11-05T01:50:10.465Z,100542.78
2018-11-05T01:52:38.222Z,100535.54
2018-11-05T01:55:07.745Z,100533.89
2018-11-05T01:57:35.393Z,100526.06
2018-11-05T02:00:03.369Z,100511.71
2018-11-05T02:02:30.978Z,100514.03
2018-11-05T02:04:58.481Z,100513.31
2018-11-05T02:07:28.506Z,100519.87
2018-11-05T02:09:56.453Z,100515.34
2018-11-05T02:12:23.988Z,100509.11
2018-11-05T02:14:51.546Z,100505.64
2018-11-05T02:17:20.065Z,100510.15
2018-11-05T02:19:49.765Z,100503.91
2018-11-05T02:22:17.283Z,100506.06
2018-11-05T02:24:44.816Z,100504.14
2018-11-05T02:27:12.480Z,100509.02
2018-11-05T02:29:39.985Z,100501.02
2018-11-05T02:32:09.758Z,100496.24
2018-11-05T02:34:37.228Z,100499.61
2018-11-05T02:37:05.417Z,100502.44
2018-11-05T02:39:33.143Z,100502.99
2018-11-05T02:42:00.660Z,100502.63
2018-11-05T02:44:30.269Z,100504.54
2018-11-05T02:46:57.851Z,100499.70
2018-11-05T02:49:25.282Z,100498.25
2018-11-05T02:51:54.077Z,100492.53
2018-11-05T02:54:21.558Z,100492.91
2018-11-05T02:56:49.981Z,100485.86
2018-11-05T02:59:17.501Z,100487.23
2018-11-05T03:01:46.340Z,100485.97
2018-11-05T03:04:13.823Z,100488.56
2018-11-05T03:06:41.284Z,100486.00
2018-11-05T03:09:12.061Z,100485.27
2018-11-05T03:11:40.167Z,100488.11
2018-11-05T03:14:08.164Z,100484.00
2018-11-05T03:16:36.121Z,100488.41
2018-11-05T03:19:03.797Z,100474.95
2018-11-05T03:21:32.577Z,100478.20
2018-11-05T03:24:01.195Z,100484.34
2018-11-05T03:26:28.670Z,100488.35
2018-11-05T03:28:56.196Z,100483.58
2018-11-05T03:31:23.973Z,100486.78
2018-11-05T03:33:52.961Z,100484.17
2018-11-05T03:36:20.952Z,100471.05
2018-11-05T03:38:48.469Z,100469.66
2018-11-05T03:41:15.954Z,100463.55
2018-11-05T03:43:43.506Z,100477.89
2018-11-05T03:46:11.988Z,100476.80
2018-11-05T03:48:39.557Z,100467.48
2018-11-05T03:51:07.137Z,100469.83
2018-11-05T03:53:35.550Z,100474.13
2018-11-05T03:56:03.207Z,100477.97
2018-11-05T03:58:31.643Z,100471.98
2018-11-05T04:01:00.449Z,100464.92
2018-11-05T04:03:28.038Z,100462.70
2018-11-05T04:05:55.459Z,100461.84
2018-11-05T04:08:23.024Z,100467.05
2018-11-05T04:10:52.007Z,100470.41
2018-11-05T04:13:19.556Z,100463.45
2018-11-05T04:15:47.279Z,100461.59
2018-11-05T04:18:14.957Z,100460.72
2018-11-05T04:20:42.599Z,100466.64
2018-11-05T04:23:11.146Z,100475.74
2018-11-05T04:25:38.701Z,100470.14
2018-11-05T04:28:06.278Z,100466.77
2018-11-05T04:30:33.858Z,100468.97
2018-11-05T04:33:01.595Z,100471.45
2018-11-05T04:35:30.427Z,100468.50
2018-11-05T04:37:59.347Z,100464.37
2018-11-05T04:40:26.853Z,100467.52
2018-11-05T04:42:54.474Z,100466.81
2018-11-05T04:45:22.292Z,100465.38
2018-11-05T04:47:50.853Z,100465.55
2018-11-05T04:50:18.397Z,100462.00
2018-11-05T04:52:46.014Z,100462.28
2018-11-05T04:55:14.254Z,100454.91
2018-11-05T04:57:41.718Z,100456.30
2018-11-05T05:00:13.474Z,100451.23
2018-11-05T05:02:41.649Z,100448.69
2018-11-05T05:05:09.934Z,100433.45
2018-11-05T05:07:38.303Z,100434.58
2018-11-05T05:10:06.379Z,100429.94
2018-11-05T05:12:35.476Z,100433.42
2018-11-05T05:15:03.813Z,100432.59
2018-11-05T05:17:31.383Z,100437.30
2018-11-05T05:19:58.881Z,100437.02
2018-11-05T05:22:26.505Z,100435.83
2018-11-05T05:24:54.930Z,100429.36
2018-11-05T05:27:22.338Z,100427.63
2018-11-05T05:29:49.970Z,100427.50
2018-11-05T05:32:17.458Z,100415.92
2018-11-05T05:34:45.044Z,100415.53
2018-11-05T05:37:14.737Z,100422.84
2018-11-05T05:39:42.242Z,100425.98
2018-11-05T05:42:09.804Z,100422.22
2018-11-05T05:44:37.367Z,100435.92
2018-11-05T05:47:05.347Z,100441.64
2018-11-05T05:49:34.329Z,100443.78
2018-11-05T05:52:03.119Z,100452.72
2018-11-05T05:54:30.974Z,100447.69
2018-11-05T05:57:00.254Z,100453.90
2018-11-05T05:59:28.253Z,100452.53
2018-11-05T06:01:56.750Z,100460.64
2018-11-05T06:04:24.538Z,100458.16
2018-11-05T06:06:52.136Z,100454.27
2018-11-05T06:09:19.556Z,100451.59
2018-11-05T06:11:47.063Z,100443.33
2018-11-05T06:14:16.629Z,100440.69
2018-11-05T06:16:44.219Z,100446.83
2018-11-05T06:19:12.093Z,100445.46
2018-11-05T06:21:39.916Z,100441.42
2018-11-05T06:24:08.396Z,100444.20
2018-11-05T06:26:37.013Z,100439.09
2018-11-05T06:29:05.209Z,100452.00
2018-11-05T06:31:33.566Z,100451.67
2018-11-05T06:34:07.995Z,100454.60
2018-11-05T06:36:36.003Z,100455.44
2018-11-05T06:39:08.808Z,100451.45
2018-11-05T06:41:36.491Z,100451.40
2018-11-05T06:44:04.377Z,100455.66
2018-11-05T06:46:31.856Z,100452.41
2018-11-05T06:49:00.501Z,100445.36
2018-11-05T06:51:27.990Z,100444.47
2018-11-05T06:53:55.586Z,100434.81
2018-11-05T06:56:24.493Z,100440.55
2018-11-05T06:58:53.687Z,100441.42
2018-11-05T07:01:22.170Z,100440.08
2018-11-05T07:03:50.666Z,100445.96
2018-11-05T07:06:18.223Z,100445.73
2018-11-05T07:08:45.935Z,100438.78
2018-11-05T07:11:14.601Z,100452.53
2018-11-05T07:13:43.061Z,100450.76
2018-11-05T07:16:10.623Z,100453.16
2018-11-05T07:18:38.727Z,100461.00
2018-11-05T07:21:06.823Z,100446.43
2018-11-05T07:23:34.651Z,100445.34
2018-11-05T07:26:03.740Z,100449.95
2018-11-05T07:28:31.272Z,100458.80
2018-11-05T07:30:58.833Z,100467.17
2018-11-05T07:33:26.387Z,100462.21
2018-11-05T07:35:54.275Z,100463.95
2018-11-05T07:38:24.282Z,100459.23
2018-11-05T07:40:51.809Z,100455.67
2018-11-05T07:43:19.356Z,100445.25
2018-11-05T07:45:46.972Z,100443.47
2018-11-05T07:48:14.600Z,100431.41
2018-11-05T07:50:44.234Z,100434.94
2018-11-05T07:53:11.827Z,100443.30
2018-11-05T07:55:39.339Z,100438.31
2018-11-05T07:58:06.815Z,100443.04
2018-11-05T08:00:41.485Z,100444.47
2018-11-05T08:03:10.063Z,100446.58
2018-11-05T08:05:37.800Z,100445.81
2018-11-05T08:08:05.913Z,100437.42
2018-11-05T08:10:33.394Z,100432.34
2018-11-05T08:13:01.195Z,100428.42
2018-11-05T08:15:32.178Z,100418.16
2018-11-05T08:17:59.738Z,100428.75
2018-11-05T08:20:27.534Z,100435.09
2018-11-05T08:22:55.135Z,100430.64
2018-11-05T08:25:22.751Z,100421.00
2018-11-05T08:27:51.218Z,100421.03
2018-11-05T08:30:20.272Z,100413.56
2018-11-05T08:32:47.783Z,100414.66
2018-11-05T08:35:16.065Z,100418.70
2018-11-05T08:37:44.998Z,100416.63
2018-11-05T08:40:16.581Z,100414.28
2018-11-05T08:42:44.949Z,100411.00
2018-11-05T08:45:13.685Z,100413.63
2018-11-05T08:47:41.420Z,100411.69
2018-11-05T08:50:11.025Z,100407.99
2018-11-05T08:52:39.489Z,100410.75
2018-11-05T08:55:09.256Z,100409.11
2018-11-05T08:57:37.647Z,100395.84
2018-11-05T09:00:08.301Z,100394.34
2018-11-05T09:02:37.194Z,100389.85
2018-11-05T09:05:06.120Z,100384.30
2018-11-05T09:07:35.056Z,100393.94
2018-11-05T09:10:02.837Z,100395.98
2018-11-05T09:12:30.206Z,100388.61
2018-11-05T09:14:57.764Z,100390.34
2018-11-05T09:17:26.376Z,100384.07
2018-11-05T09:19:53.911Z,100377.22
2018-11-05T09:22:21.579Z,100385.61
2018-11-05T09:24:49.199Z,100381.06
2018-11-05T09:27:16.761Z,100376.64
2018-11-05T09:29:47.533Z,100378.63
2018-11-05T09:32:15.176Z,100383.27
2018-11-05T09:34:44.474Z,100382.16
2018-11-05T09:40:44.009Z,100389.17
2018-11-05T09:43:11.677Z,100389.10
2018-11-05T09:45:39.166Z,100391.14
2018-11-05T09:48:06.649Z,100382.94
2018-11-05T09:50:34.354Z,100386.00
2018-11-05T09:53:03.715Z,100386.11
2018-11-05T09:55:31.367Z,100387.19
2018-11-05T09:57:59.051Z,100396.55
2018-11-05T10:00:27.360Z,100407.98
2018-11-05T10:03:02.232Z,100404.71
2018-11-05T10:05:30.524Z,100402.17
2018-11-05T10:07:58.936Z,100393.25
2018-11-05T10:10:26.660Z,100397.73
2018-11-05T10:12:54.109Z,100386.92
2018-11-05T10:15:21.688Z,100392.64
2018-11-05T10:17:49.607Z,100388.44
2018-11-05T10:20:22.598Z,100376.20
2018-11-05T10:22:50.164Z,100379.59
2018-11-05T10:25:18.837Z,100380.61
2018-11-05T10:27:46.784Z,100386.52
2018-11-05T10:30:17.872Z,100380.55
2018-11-05T10:32:45.944Z,100369.91
2018-11-05T10:35:14.445Z,100371.27
2018-11-05T10:37:42.093Z,100359.90
2018-11-05T10:40:14.843Z,100364.64
2018-11-05T10:42:44.973Z,100361.23
2018-11-05T10:45:14.315Z,100360.50
2018-11-05T10:47:41.950Z,100350.77
2018-11-05T10:50:11.025Z,100352.92
2018-11-05T10:52:38.540Z,100349.38
2018-11-05T10:55:06.793Z,100349.13
2018-11-05T10:57:35.618Z,100355.94
2018-11-05T11:00:03.277Z,100346.23
2018-11-05T11:02:37.672Z,100343.94
2018-11-05T11:05:07.283Z,100337.78
2018-11-05T11:07:35.865Z,100351.83
2018-11-05T11:10:04.143Z,100346.36
2018-11-05T11:12:31.676Z,100338.43
2018-11-05T11:14:59.306Z,100324.74
2018-11-05T11:17:27.925Z,100341.25
2018-11-05T11:21:25.859Z,100349.17
2018-11-05T11:23:54.799Z,100337.42
2018-11-05T11:26:22.972Z,100354.06
2018-11-05T11:28:51.917Z,100355.58
2018-11-05T11:31:19.485Z,100351.14
2018-11-05T11:33:47.091Z,100340.50
2018-11-05T11:36:14.828Z,100335.90
2018-11-05T11:38:42.442Z,100335.31
2018-11-05T11:41:11.178Z,100325.92
2018-11-05T11:43:38.747Z,100315.06
2018-11-05T11:46:07.686Z,100313.38
2018-11-05T11:48:35.181Z,100307.53
2018-11-05T11:51:02.833Z,100303.27
2018-11-05T11:53:35.426Z,100307.60
2018-11-05T11:56:02.974Z,100308.06
2018-11-05T11:58:30.449Z,100311.82
2018-11-05T12:00:58.212Z,100303.34
2018-11-05T12:03:25.729Z,100301.55
2018-11-05T12:05:54.630Z,100307.00
2018-11-05T12:08:23.709Z,100294.17
2018-11-05T12:10:51.378Z,100287.52
2018-11-05T12:13:18.939Z,100280.52
2018-11-05T12:15:46.616Z,100286.46
2018-11-05T12:18:16.455Z,100287.05
2018-11-05T12:20:44.121Z,100290.56
2018-11-05T12:23:12.866Z,100294.50
2018-11-05T12:25:40.400Z,100305.76
2018-11-05T12:28:08.132Z,100299.64
2018-11-05T12:30:36.610Z,100298.32
2018-11-05T12:33:04.687Z,100282.23
2018-11-05T12:35:32.249Z,100284.70
2018-11-05T12:37:59.918Z,100274.73
2018-11-05T12:40:27.439Z,100267.90
2018-11-05T12:42:56.586Z,100253.39
2018-11-05T12:45:24.204Z,100258.10
2018-11-05T12:47:52.408Z,100259.25
2018-11-05T12:50:23.003Z,100270.21
2018-11-05T12:52:51.723Z,100269.97
2018-11-05T12:55:20.317Z,100272.33
2018-11-05T12:57:48.281Z,100277.52
2018-11-05T13:00:22.008Z,100276.41
2018-11-05T13:03:00.094Z,100264.30
2018-11-05T13:05:31.348Z,100261.73
2018-11-05T13:07:59.229Z,100254.18
2018-11-05T13:10:26.794Z,100250.69
2018-11-05T13:12:54.406Z,100259.67
2018-11-05T13:15:22.084Z,100244.51
2018-11-05T13:17:50.616Z,100242.65
2018-11-05T13:20:19.484Z,100250.40
2018-11-05T13:22:47.327Z,100247.20
2018-11-05T13:25:14.878Z,100242.43
2018-11-05T13:27:43.612Z,100245.57
2018-11-05T13:30:13.784Z,100246.17
2018-11-05T13:32:41.884Z,100240.11
2018-11-05T13:35:13.955Z,100239.91
2018-11-05T13:37:41.919Z,100247.20
2018-11-05T13:40:11.386Z,100247.63
2018-11-05T13:42:39.917Z,100250.84
2018-11-05T13:45:08.688Z,100249.70
2018-11-05T13:47:36.931Z,100245.50
2018-11-05T13:50:05.609Z,100237.54
2018-11-05T13:52:32.880Z,100234.22
2018-11-05T13:55:02.640Z,100230.18
2018-11-05T13:57:30.100Z,100223.09
2018-11-05T13:59:57.713Z,100225.89
2018-11-05T14:02:25.244Z,100228.83
2018-11-05T14:04:52.947Z,100220.20
2018-11-05T14:07:21.375Z,100217.73
2018-11-05T14:09:48.929Z,100219.47
2018-11-05T14:12:17.725Z,100208.62
2018-11-05T14:14:45.259Z,100212.14
2018-11-05T14:17:14.221Z,100217.38
2018-11-05T14:19:42.814Z,100212.76
2018-11-05T14:22:10.312Z,100207.09
2018-11-05T14:24:37.831Z,100202.20
2018-11-05T14:27:05.669Z,100215.17
2018-11-05T14:29:34.808Z,100202.94
2018-11-05T14:32:02.761Z,100192.63
2018-11-05T14:34:30.333Z,100195.67
2018-11-05T14:36:57.933Z,100199.34
2018-11-05T14:39:26.447Z,100205.23
2018-11-05T14:41:54.355Z,100197.27
2018-11-05T14:44:24.358Z,100201.77
2018-11-05T14:46:52.001Z,100200.55
2018-11-05T14:49:19.652Z,100204.70
2018-11-05T14:51:47.787Z,100201.34
2018-11-05T14:54:15.430Z,100204.88
2018-11-05T14:56:44.115Z,100209.38
2018-11-05T14:59:11.618Z,100205.47
2018-11-05T15:01:39.142Z,100211.30
2018-11-05T15:04:07.940Z,100211.50
2018-11-05T15:06:35.424Z,100215.45
2018-11-05T15:09:07.235Z,100221.56
2018-11-05T15:11:34.958Z,100220.77
2018-11-05T15:14:02.445Z,100215.73
2018-11-05T15:16:30.070Z,100218.56
2018-11-05T15:18:58.227Z,100229.50
2018-11-05T15:21:26.815Z,100222.70
2018-11-05T15:23:54.335Z,100217.53
2018-11-05T15:26:22.671Z,100222.57
2018-11-05T15:28:50.252Z,100220.78
2018-11-05T15:31:17.809Z,100223.23
2018-11-05T15:33:47.574Z,100224.98
2018-11-05T15:36:15.239Z,100228.02
2018-11-05T15:38:42.745Z,100223.99
2018-11-05T15:41:11.516Z,100233.81
2018-11-05T15:43:38.960Z,100226.30
2018-11-05T15:46:08.181Z,100228.58
2018-11-05T15:48:35.805Z,100218.81
2018-11-05T15:51:03.508Z,100222.48
2018-11-05T15:53:31.509Z,100218.06
2018-11-05T15:55:59.371Z,100217.27
2018-11-05T15:58:28.968Z,100217.64
2018-11-05T16:00:56.532Z,100216.75
2018-11-05T16:03:24.036Z,100212.93
2018-11-05T16:05:51.693Z,100214.86
2018-11-05T16:08:19.306Z,100217.45
2018-11-05T16:10:48.174Z,100209.67
2018-11-05T16:13:15.831Z,100209.48
2018-11-05T16:15:43.397Z,100217.12
2018-11-05T16:18:12.181Z,100227.59
2018-11-05T16:20:39.687Z,100233.05
2018-11-05T16:23:09.408Z,100229.28
2018-11-05T16:25:37.057Z,100219.67
2018-11-05T16:28:05.392Z,100215.84
2018-11-05T16:30:33.077Z,100216.84
2018-11-05T16:33:00.452Z,100216.55
2018-11-05T16:35:29.245Z,100217.48
2018-11-05T16:37:56.658Z,100223.20
2018-11-05T16:40:25.481Z,100224.74
2018-11-05T16:42:53.109Z,100223.37
2018-11-05T16:45:20.680Z,100230.37
2018-11-05T16:47:50.583Z,100229.81
2018-11-05T16:50:23.000Z,100235.08
2018-11-05T16:52:50.559Z,100233.26
2018-11-05T16:55:18.425Z,100243.77
2018-11-05T16:57:46.129Z,100242.81
2018-11-05T17:00:15.080Z,100242.92
2018-11-05T17:02:43.442Z,100245.13
2018-11-05T17:05:10.995Z,100240.17
2018-11-05T17:07:38.689Z,100243.56
2018-11-05T17:10:07.737Z,100241.13
2018-11-05T17:12:37.679Z,100233.13
2018-11-05T17:15:09.458Z,100231.64
2018-11-05T17:17:37.508Z,100228.22
2018-11-05T17:20:07.114Z,100228.64
2018-11-05T17:22:35.289Z,100225.77
2018-11-05T17:25:03.933Z,100221.62
2018-11-05T17:27:31.491Z,100223.84
2018-11-05T17:29:59.239Z,100227.56
2018-11-05T17:32:26.992Z,100224.61
2018-11-05T17:34:54.878Z,100229.67
2018-11-05T17:37:24.641Z,100225.84
2018-11-05T17:39:52.166Z,100226.31
2018-11-05T17:42:19.824Z,100228.52
2018-11-05T17:44:47.957Z,100221.52
2018-11-05T17:47:15.459Z,100228.61
2018-11-05T17:49:44.198Z,100222.13
2018-11-05T17:52:11.797Z,100222.20
2018-11-05T17:54:39.693Z,100220.59
2018-11-05T17:57:08.465Z,100222.52
2018-11-05T17:59:36.089Z,100219.65
2018-11-05T18:02:04.982Z,100225.66
2018-11-05T18:04:32.555Z,100220.80
2018-11-05T18:07:00.115Z,100228.33
2018-11-05T18:09:27.834Z,100226.34
2018-11-05T18:11:55.345Z,100220.67
2018-11-05T18:14:23.937Z,100219.68
2018-11-05T18:16:51.798Z,100220.63
2018-11-05T18:19:19.382Z,100219.97
2018-11-05T18:21:47.749Z,100217.12
2018-11-05T18:24:15.401Z,100218.18
2018-11-05T18:26:45.222Z,100215.60
2018-11-05T18:29:13.400Z,100213.09
2018-11-05T18:31:41.749Z,100218.64
2018-11-05T18:34:09.334Z,100209.43
2018-11-05T18:36:37.442Z,100210.89
2018-11-05T18:39:08.617Z,100209.93
2018-11-05T18:41:36.339Z,100212.71
2018-11-05T18:44:05.167Z,100211.65
2018-11-05T18:46:32.776Z,100212.84
2018-11-05T18:49:00.400Z,100219.13
2018-11-05T18:51:30.263Z,100216.91
2018-11-05T18:53:58.151Z,100207.83
2018-11-05T18:56:25.869Z,100199.44
2018-11-05T18:58:53.449Z,100201.25
2018-11-05T19:01:20.985Z,100203.44
2018-11-05T19:03:49.551Z,100203.63
2018-11-05T19:06:17.133Z,100212.52
2018-11-05T19:08:44.610Z,100215.60
2018-11-05T19:11:12.080Z,100223.11
2018-11-05T19:13:39.702Z,100220.05
2018-11-05T19:16:09.366Z,100225.22
2018-11-05T19:18:36.914Z,100226.95
2018-11-05T19:21:06.066Z,100226.38
2018-11-05T19:23:34.675Z,100232.31
2018-11-05T19:26:02.172Z,100232.20
2018-11-05T19:28:31.098Z,100228.97
2018-11-05T19:30:58.609Z,100238.15
2018-11-05T19:33:26.582Z,100243.50
2018-11-05T19:35:54.069Z,100242.13
2018-11-05T19:38:21.601Z,100240.60
2018-11-05T19:40:51.098Z,100226.08
2018-11-05T19:43:19.849Z,100231.23
2018-11-05T19:45:47.290Z,100218.05
2018-11-05T19:48:14.833Z,100222.17
2018-11-05T19:50:43.556Z,100227.08
2018-11-05T19:53:12.176Z,100226.45
2018-11-05T19:55:40.063Z,100216.03
2018-11-05T19:58:07.753Z,100210.61
2018-11-05T20:00:36.315Z,100215.75
2018-11-05T20:03:03.877Z,100211.39
2018-11-05T20:05:32.768Z,100203.63
2018-11-05T20:08:00.203Z,100195.15
2018-11-05T20:10:27.895Z,100200.22
2018-11-05T20:12:55.607Z,100209.69
2018-11-05T20:15:23.226Z,100211.96
2018-11-05T20:17:53.899Z,100210.64
2018-11-05T20:20:23.002Z,100209.05
2018-11-05T20:22:50.531Z,100211.42
2018-11-05T20:25:19.323Z,100215.26
2018-11-05T20:27:47.599Z,100214.21
2018-11-05T20:30:18.258Z,100222.48
2018-11-05T20:32:47.010Z,100223.39
2018-11-05T20:35:14.723Z,100225.98
2018-11-05T20:37:42.246Z,100230.89
2018-11-05T20:40:14.380Z,100235.21
2018-11-05T20:42:44.577Z,100239.37
2018-11-05T20:45:12.984Z,100235.95
2018-11-05T20:47:40.957Z,100235.06
2018-11-05T20:50:10.722Z,100241.55
2018-11-05T20:52:38.693Z,100237.19
2018-11-05T20:55:07.350Z,100229.59
2018-11-05T20:57:35.086Z,100221.89
2018-11-05T21:00:02.790Z,100230.34
2018-11-05T21:02:30.817Z,100235.61
2018-11-05T21:04:58.418Z,100226.77
2018-11-05T21:07:26.869Z,100236.70
2018-11-05T21:09:55.046Z,100240.13
2018-11-05T21:12:22.633Z,100248.11
2018-11-05T21:14:50.812Z,100246.42
2018-11-05T21:17:18.462Z,100237.28
2018-11-05T21:19:46.718Z,100234.20
2018-11-05T21:22:14.892Z,100222.66
2018-11-05T21:24:43.513Z,100216.89
2018-11-05T21:27:11.500Z,100219.72
2018-11-05T21:29:39.113Z,100223.92
2018-11-05T21:32:07.522Z,100225.11
2018-11-05T21:34:35.032Z,100227.91
2018-11-05T21:37:02.590Z,100231.24
2018-11-05T21:39:30.626Z,100234.14
2018-11-05T21:41:59.567Z,100228.14
2018-11-05T21:44:27.656Z,100234.61
2018-11-05T21:46:55.524Z,100228.55
2018-11-05T21:49:23.328Z,100227.85
2018-11-05T21:51:51.893Z,100229.49
2018-11-05T21:54:19.552Z,100230.05
2018-11-05T21:56:50.185Z,100235.61
2018-11-05T21:59:17.765Z,100237.95
2018-11-05T22:01:45.643Z,100226.05
2018-11-05T22:04:13.880Z,100224.39
2018-11-05T22:06:41.644Z,100221.58
2018-11-05T22:09:09.791Z,100222.86
2018-11-05T22:11:37.792Z,100223.47
2018-11-05T22:14:05.426Z,100225.41
2018-11-05T22:16:33.454Z,100222.84
2018-11-05T22:19:01.567Z,100228.55
2018-11-05T22:21:30.809Z,100217.23
2018-11-05T22:23:58.815Z,100225.88
2018-11-05T22:26:26.723Z,100228.08
2018-11-05T22:28:55.327Z,100226.45
2018-11-05T22:31:22.807Z,100230.47
2018-11-05T22:33:50.884Z,100224.39
2018-11-05T22:36:18.416Z,100209.42
2018-11-05T22:38:45.892Z,100209.53
2018-11-05T22:41:14.898Z,100211.75
2018-11-05T22:43:42.422Z,100211.77
2018-11-05T22:46:11.260Z,100215.91
2018-11-05T22:48:38.797Z,100220.24
2018-11-05T22:51:06.401Z,100225.25
2018-11-05T22:53:35.950Z,100225.26
2018-11-05T22:56:03.527Z,100224.59
2018-11-05T22:58:31.520Z,100230.34
2018-11-05T23:01:02.857Z,100227.33
2018-11-05T23:03:30.886Z,100230.48
2018-11-05T23:05:59.350Z,100228.80
2018-11-05T23:08:27.427Z,100231.20
2018-11-05T23:10:56.945Z,100233.95
2018-11-05T23:13:24.552Z,100235.28
2018-11-05T23:15:52.201Z,100234.95
2018-11-05T23:18:20.998Z,100237.75
2018-11-05T23:20:48.687Z,100244.44
2018-11-05T23:23:16.678Z,100238.11
2018-11-05T23:25:44.853Z,100233.47
2018-11-05T23:28:12.358Z,100241.09
2018-11-05T23:30:40.328Z,100243.96
2018-11-05T23:33:08.212Z,100252.12
2018-11-05T23:35:37.127Z,100252.27
2018-11-05T23:38:04.832Z,100256.12
2018-11-05T23:40:32.821Z,100260.42
2018-11-05T23:43:00.905Z,100250.20
2018-11-05T23:45:28.462Z,100247.92
2018-11-05T23:47:56.738Z,100245.17
2018-11-05T23:50:24.194Z,100248.45
2018-11-05T23:52:51.679Z,100248.45
2018-11-05T23:55:19.645Z,100246.03
2018-11-05T23:57:47.500Z,100252.39
